Time;durP1;ratioP1;P1;durP2;ratioP2;P2;SDS_P1;SDS_P2;PMS_P1;PMS_P2;Temp;Humidity;BMP_temperature;BMP_pressure;BME280_temperature;BME280_humidity;BME280_pressure;Samples;Min_cycle;Max_cycle;Signal;HPM_P1;HPM_P2
2021/05/27 00:00:24;;;;;;;2.22;1.88;;;10.20;96.20;;;;;;5004105;28;20038;-87
2021/05/27 00:02:49;;;;;;;1.73;1.13;;;10.10;96.30;;;;;;5016383;28;20081;-86
2021/05/27 00:05:16;;;;;;;1.30;1.15;;;10.10;96.50;;;;;;5013188;28;20046;-85
2021/05/27 00:07:42;;;;;;;2.35;1.42;;;10.10;96.30;;;;;;5005263;28;20030;-85
2021/05/27 00:10:09;;;;;;;1.55;1.30;;;10.10;96.10;;;;;;5022318;28;20020;-87
2021/05/27 00:12:35;;;;;;;2.00;1.65;;;10.20;96.00;;;;;;5024082;28;20108;-87
2021/05/27 00:15:02;;;;;;;1.45;1.23;;;10.10;96.00;;;;;;5007917;28;20274;-86
2021/05/27 00:17:28;;;;;;;1.70;0.93;;;10.10;96.00;;;;;;5006716;28;20034;-84
2021/05/27 00:19:53;;;;;;;1.63;1.40;;;10.10;96.00;;;;;;5019470;28;20095;-86
2021/05/27 00:22:19;;;;;;;2.10;1.52;;;10.00;96.10;;;;;;5007811;28;20057;-86
2021/05/27 00:24:44;;;;;;;3.88;1.40;;;10.00;96.00;;;;;;5014035;28;20041;-85
2021/05/27 00:27:10;;;;;;;2.00;1.73;;;10.00;96.20;;;;;;5017720;28;20048;-85
2021/05/27 00:29:35;;;;;;;2.17;1.50;;;9.90;96.20;;;;;;5018710;28;20299;-85
2021/05/27 00:32:01;;;;;;;1.83;1.63;;;10.00;96.20;;;;;;5010553;28;20034;-86
2021/05/27 00:34:26;;;;;;;1.75;1.52;;;10.00;96.10;;;;;;5019552;28;20042;-86
2021/05/27 00:36:52;;;;;;;1.98;1.80;;;10.00;96.20;;;;;;5016667;28;20042;-86
2021/05/27 00:39:17;;;;;;;1.65;1.48;;;10.00;96.10;;;;;;5011726;28;20038;-86
2021/05/27 00:41:43;;;;;;;2.13;1.90;;;10.00;96.10;;;;;;5002125;28;20046;-87
2021/05/27 00:44:26;;;;;;;3.00;1.77;;;10.00;95.90;;;;;;5005499;28;20045;-85
2021/05/27 00:46:53;;;;;;;2.83;1.67;;;10.00;95.90;;;;;;5005931;28;20048;-85
2021/05/27 00:49:19;;;;;;;3.55;2.03;;;10.00;95.90;;;;;;5005516;28;20291;-85
2021/05/27 00:51:47;;;;;;;7.97;2.05;;;10.00;95.80;;;;;;5023974;28;20042;-85
2021/05/27 00:54:14;;;;;;;2.45;2.20;;;10.00;95.80;;;;;;5010982;28;20120;-85
2021/05/27 00:56:40;;;;;;;2.38;2.00;;;10.00;95.80;;;;;;5005717;28;20130;-85
2021/05/27 00:59:07;;;;;;;3.95;2.50;;;10.00;95.70;;;;;;5021649;28;20049;-85
2021/05/27 01:01:32;;;;;;;2.97;2.67;;;10.10;95.60;;;;;;5014089;28;21203;-85
2021/05/27 01:03:58;;;;;;;2.55;2.35;;;10.10;95.50;;;;;;5014854;28;20045;-86
2021/05/27 01:06:24;;;;;;;4.28;2.53;;;10.10;95.50;;;;;;5009883;28;20113;-86
2021/05/27 01:08:49;;;;;;;3.33;3.03;;;10.10;95.50;;;;;;5005832;28;20034;-86
2021/05/27 01:11:16;;;;;;;2.90;2.60;;;10.10;95.50;;;;;;5009626;28;20124;-86
2021/05/27 01:13:42;;;;;;;4.85;2.45;;;10.20;95.40;;;;;;5008483;28;20050;-86
2021/05/27 01:16:13;;;;;;;3.53;3.05;;;10.10;95.40;;;;;;5005954;28;20132;-86
2021/05/27 01:18:38;;;;;;;2.95;2.65;;;10.10;95.40;;;;;;5010281;28;20042;-85
2021/05/27 01:21:04;;;;;;;3.28;2.70;;;10.10;95.40;;;;;;5017380;28;20080;-86
2021/05/27 01:23:30;;;;;;;4.68;3.75;;;10.10;95.40;;;;;;5007091;28;20129;-86
2021/05/27 01:25:58;;;;;;;3.22;2.90;;;10.00;95.60;;;;;;5008971;28;20105;-86
2021/05/27 01:28:28;;;;;;;7.10;3.10;;;10.00;95.60;;;;;;5008091;28;20030;-88
2021/05/27 01:30:54;;;;;;;3.55;2.95;;;10.00;95.50;;;;;;5007125;28;20042;-86
2021/05/27 01:33:19;;;;;;;2.42;2.10;;;10.00;95.60;;;;;;5009315;28;20386;-84
2021/05/27 01:35:45;;;;;;;3.33;3.03;;;10.10;95.60;;;;;;5010838;28;20129;-86
2021/05/27 01:38:13;;;;;;;4.07;2.83;;;10.10;95.50;;;;;;5026240;28;20053;-86
2021/05/27 01:40:38;;;;;;;2.63;2.42;;;10.10;95.40;;;;;;5009591;28;20030;-85
2021/05/27 01:43:04;;;;;;;4.20;3.28;;;10.20;95.50;;;;;;5011279;28;20033;-86
2021/05/27 01:45:30;;;;;;;4.25;3.25;;;10.20;95.50;;;;;;5010899;28;20164;-85
2021/05/27 01:47:55;;;;;;;3.38;2.50;;;10.20;95.40;;;;;;5003785;28;20038;-85
2021/05/27 01:50:21;;;;;;;3.20;2.90;;;10.20;95.40;;;;;;5003854;28;20049;-85
2021/05/27 01:52:51;;;;;;;3.05;2.72;;;10.10;95.20;;;;;;5011475;28;20053;-86
2021/05/27 01:55:17;;;;;;;3.03;2.72;;;10.10;95.50;;;;;;5013259;28;20045;-85
2021/05/27 01:57:42;;;;;;;4.18;3.20;;;10.10;95.40;;;;;;5008832;28;20118;-86
2021/05/27 02:00:08;;;;;;;5.05;3.00;;;10.10;95.40;;;;;;5014014;28;20048;-87
2021/05/27 02:02:34;;;;;;;4.32;3.15;;;10.10;95.50;;;;;;5027232;28;20042;-85
2021/05/27 02:04:59;;;;;;;4.50;3.35;;;10.10;95.40;;;;;;5007511;28;20065;-86
2021/05/27 02:07:27;;;;;;;3.90;3.47;;;10.10;95.50;;;;;;5007640;28;20306;-84
2021/05/27 02:09:53;;;;;;;3.08;2.78;;;10.10;95.50;;;;;;5011806;28;20042;-84
2021/05/27 02:12:19;;;;;;;3.20;2.90;;;10.20;95.20;;;;;;5017360;28;20088;-85
2021/05/27 02:14:44;;;;;;;3.38;2.78;;;10.20;95.30;;;;;;5006403;28;20354;-85
2021/05/27 02:17:10;;;;;;;3.53;2.75;;;10.20;95.20;;;;;;5007898;28;20050;-86
2021/05/27 02:19:35;;;;;;;3.58;3.00;;;10.20;95.30;;;;;;5007316;28;20117;-85
2021/05/27 02:22:01;;;;;;;4.82;3.50;;;10.30;95.40;;;;;;5010713;28;20049;-85
2021/05/27 02:24:26;;;;;;;3.65;3.30;;;10.20;95.30;;;;;;4999562;28;20124;-83
2021/05/27 02:26:52;;;;;;;5.53;3.47;;;10.30;95.40;;;;;;4997962;28;20414;-83
2021/05/27 02:29:18;;;;;;;3.28;2.97;;;10.30;95.40;;;;;;5012559;28;20022;-83
2021/05/27 02:31:43;;;;;;;3.65;3.28;;;10.30;95.50;;;;;;5009858;28;20046;-84
2021/05/27 02:34:09;;;;;;;4.15;3.53;;;10.30;95.30;;;;;;5012511;28;20029;-86
2021/05/27 02:36:35;;;;;;;4.50;3.08;;;10.40;95.30;;;;;;4998281;28;20030;-85
2021/05/27 02:39:00;;;;;;;3.78;2.83;;;10.40;95.30;;;;;;5007241;28;20030;-85
2021/05/27 02:41:26;;;;;;;3.97;3.45;;;10.40;95.40;;;;;;5011374;28;20125;-84
2021/05/27 02:43:52;;;;;;;5.68;3.45;;;10.50;95.40;;;;;;5010587;28;20042;-85
2021/05/27 02:46:19;;;;;;;4.07;3.67;;;10.40;95.10;;;;;;5011703;28;20110;-85
2021/05/27 02:48:44;;;;;;;4.43;3.53;;;10.40;95.10;;;;;;5007461;28;20046;-85
2021/05/27 02:51:10;;;;;;;7.07;3.92;;;10.40;95.10;;;;;;5006247;28;20042;-85
2021/05/27 02:53:35;;;;;;;4.65;3.17;;;10.40;95.10;;;;;;5010345;28;20038;-85
2021/05/27 02:56:01;;;;;;;4.82;3.05;;;10.40;95.10;;;;;;5001735;28;20066;-85
2021/05/27 02:58:27;;;;;;;4.15;3.58;;;10.40;95.00;;;;;;5001590;28;20046;-84
2021/05/27 03:00:53;;;;;;;5.35;3.50;;;10.40;95.00;;;;;;5014834;28;20049;-86
2021/05/27 03:03:21;;;;;;;4.40;3.85;;;10.40;95.40;;;;;;5020128;28;20034;-85
2021/05/27 03:05:48;;;;;;;3.72;3.40;;;10.40;94.90;;;;;;5019543;28;20050;-85
2021/05/27 03:08:14;;;;;;;5.38;3.50;;;10.50;95.10;;;;;;5003781;28;20310;-85
2021/05/27 03:10:40;;;;;;;4.60;3.38;;;10.50;95.00;;;;;;5011063;28;20056;-85
2021/05/27 03:13:07;;;;;;;4.30;3.90;;;10.50;94.80;;;;;;5006598;28;20073;-85
2021/05/27 03:15:33;;;;;;;4.72;3.83;;;10.50;94.90;;;;;;5010113;28;20041;-85
2021/05/27 03:18:01;;;;;;;3.90;2.97;;;10.50;94.90;;;;;;5023198;28;20040;-84
2021/05/27 03:20:27;;;;;;;8.82;4.15;;;10.50;94.90;;;;;;5015450;28;20468;-85
2021/05/27 03:22:52;;;;;;;5.55;4.03;;;10.60;94.80;;;;;;5000809;28;20081;-84
2021/05/27 03:25:18;;;;;;;3.95;3.63;;;10.60;94.80;;;;;;5014444;28;20038;-85
2021/05/27 03:27:43;;;;;;;5.00;3.55;;;10.60;94.60;;;;;;5009062;28;20049;-85
2021/05/27 03:30:09;;;;;;;3.80;3.40;;;10.60;94.80;;;;;;5006347;28;20073;-84
2021/05/27 03:32:35;;;;;;;3.92;3.53;;;10.60;94.80;;;;;;5013742;28;20291;-86
2021/05/27 03:35:00;;;;;;;4.90;3.80;;;10.60;94.60;;;;;;5001631;28;20125;-85
2021/05/27 03:37:26;;;;;;;3.92;3.28;;;10.60;94.50;;;;;;4999134;28;20050;-85
2021/05/27 03:40:11;;;;;;;6.80;3.45;;;10.60;94.60;;;;;;5003571;28;20073;-83
2021/05/27 03:42:37;;;;;;;5.25;3.70;;;10.60;94.50;;;;;;5014738;28;20050;-83
2021/05/27 03:45:11;;;;;;;4.15;3.17;;;10.50;94.40;;;;;;4999132;28;20080;-85
2021/05/27 03:47:37;;;;;;;4.07;3.67;;;10.40;94.70;;;;;;5000116;28;20042;-84
2021/05/27 03:50:05;;;;;;;4.68;3.42;;;10.40;95.00;;;;;;5009040;28;20061;-85
2021/05/27 03:52:30;;;;;;;4.38;3.30;;;10.40;94.90;;;;;;5001412;28;20044;-84
2021/05/27 03:54:55;;;;;;;8.65;4.13;;;10.50;94.90;;;;;;5008377;28;20046;-84
2021/05/27 03:57:21;;;;;;;4.70;3.40;;;10.60;95.10;;;;;;5014783;28;20049;-85
2021/05/27 04:02:31;;;;;;;4.35;3.53;;;10.70;94.80;;;;;;5017769;28;20139;-84
2021/05/27 04:07:40;;;;;;;5.13;3.35;;;10.70;94.70;;;;;;5010490;28;20088;-85
2021/05/27 04:10:07;;;;;;;6.30;3.72;;;10.80;94.60;;;;;;5010801;28;20050;-85
2021/05/27 04:12:48;;;;;;;6.95;3.67;;;10.80;94.50;;;;;;5030676;28;20026;-85
2021/05/27 04:15:28;;;;;;;4.07;3.13;;;10.80;94.20;;;;;;5018146;28;20038;-84
2021/05/27 04:18:09;;;;;;;3.58;2.88;;;10.90;94.30;;;;;;5016574;28;20044;-85
2021/05/27 04:20:40;;;;;;;4.47;3.45;;;10.90;94.30;;;;;;5011262;28;20102;-85
2021/05/27 04:23:11;;;;;;;4.18;3.40;;;11.00;93.90;;;;;;5008002;28;20041;-85
2021/05/27 04:25:38;;;;;;;3.65;3.13;;;11.00;94.20;;;;;;5013446;28;20049;-84
2021/05/27 04:28:04;;;;;;;4.97;2.97;;;11.00;94.40;;;;;;5006132;28;20038;-85
2021/05/27 04:30:30;;;;;;;4.38;3.47;;;11.10;94.20;;;;;;5005593;28;20126;-85
2021/05/27 04:33:06;;;;;;;4.97;3.40;;;11.10;94.30;;;;;;5011490;28;20049;-84
2021/05/27 04:35:37;;;;;;;3.03;2.67;;;11.20;94.00;;;;;;5014700;28;20045;-84
2021/05/27 04:38:06;;;;;;;4.75;3.50;;;11.20;93.70;;;;;;5012836;28;20041;-83
2021/05/27 04:40:33;;;;;;;3.03;2.35;;;11.30;93.90;;;;;;5008505;28;20432;-86
2021/05/27 04:42:59;;;;;;;4.13;2.88;;;11.40;93.70;;;;;;5006463;28;20046;-84
2021/05/27 04:45:25;;;;;;;3.50;2.67;;;11.40;93.90;;;;;;5028507;28;20068;-85
2021/05/27 04:47:52;;;;;;;3.22;2.92;;;11.50;93.50;;;;;;5025232;28;20045;-84
2021/05/27 04:50:18;;;;;;;4.70;3.00;;;11.50;93.60;;;;;;5001684;28;20160;-84
2021/05/27 04:52:44;;;;;;;4.00;3.60;;;11.50;94.10;;;;;;5026231;28;20121;-84
2021/05/27 04:55:12;;;;;;;3.72;3.10;;;11.60;93.70;;;;;;5024062;28;20136;-85
2021/05/27 04:57:38;;;;;;;6.63;3.60;;;11.60;93.60;;;;;;5002221;28;20030;-84
2021/05/27 05:00:07;;;;;;;7.22;3.00;;;11.70;93.30;;;;;;5000907;28;20338;-85
2021/05/27 05:02:32;;;;;;;6.85;3.35;;;11.70;93.50;;;;;;5011055;28;20595;-83
2021/05/27 05:04:58;;;;;;;4.82;3.17;;;11.80;93.50;;;;;;5001500;28;20038;-84
2021/05/27 05:07:23;;;;;;;7.45;3.17;;;11.90;93.40;;;;;;5026938;28;20035;-82
2021/05/27 05:09:49;;;;;;;4.65;3.38;;;12.00;93.20;;;;;;5004396;28;20044;-83
2021/05/27 05:12:14;;;;;;;3.72;3.00;;;12.00;92.90;;;;;;5014275;28;20052;-84
2021/05/27 05:14:40;;;;;;;3.42;3.13;;;12.00;92.80;;;;;;5012316;28;20501;-84
2021/05/27 05:17:05;;;;;;;6.22;3.42;;;12.00;93.00;;;;;;5005337;28;20346;-84
2021/05/27 05:19:31;;;;;;;3.33;2.83;;;12.10;92.50;;;;;;5016668;28;20038;-84
2021/05/27 05:21:57;;;;;;;5.80;3.05;;;12.10;92.80;;;;;;5010455;28;20058;-83
2021/05/27 05:24:23;;;;;;;3.30;3.00;;;12.10;92.50;;;;;;5017440;28;20077;-84
2021/05/27 05:26:49;;;;;;;5.95;3.15;;;12.10;92.90;;;;;;5024213;28;20033;-84
2021/05/27 05:29:14;;;;;;;4.50;3.13;;;12.10;92.60;;;;;;5025586;28;20041;-84
2021/05/27 05:31:40;;;;;;;3.58;2.97;;;12.20;92.60;;;;;;5012910;28;20065;-85
2021/05/27 05:34:05;;;;;;;6.32;3.35;;;12.30;92.70;;;;;;5010313;28;20168;-84
2021/05/27 05:36:31;;;;;;;3.30;2.67;;;12.30;92.40;;;;;;5007553;28;20483;-84
2021/05/27 05:38:56;;;;;;;6.38;2.80;;;12.40;92.40;;;;;;5004260;28;20476;-84
2021/05/27 05:41:22;;;;;;;3.28;2.97;;;12.50;92.10;;;;;;5016528;28;20398;-85
2021/05/27 05:43:48;;;;;;;5.75;2.90;;;12.50;92.10;;;;;;5016178;28;20117;-84
2021/05/27 05:46:14;;;;;;;3.17;2.60;;;12.50;92.20;;;;;;5015457;28;20042;-84
2021/05/27 05:48:39;;;;;;;3.40;3.10;;;12.40;92.10;;;;;;5016731;28;20278;-84
2021/05/27 05:51:07;;;;;;;3.78;3.13;;;12.40;92.20;;;;;;5016457;28;20041;-85
2021/05/27 05:53:33;;;;;;;6.57;2.72;;;12.50;92.30;;;;;;5016600;28;20042;-85
2021/05/27 05:55:59;;;;;;;3.95;3.08;;;12.40;92.40;;;;;;5021382;28;20061;-84
2021/05/27 05:58:25;;;;;;;4.05;3.20;;;12.40;92.40;;;;;;5027990;28;20050;-84
2021/05/27 06:00:51;;;;;;;5.53;3.13;;;12.40;92.40;;;;;;5017047;28;20065;-83
2021/05/27 06:03:17;;;;;;;4.18;3.05;;;12.40;92.30;;;;;;5017207;28;20049;-84
2021/05/27 06:05:43;;;;;;;2.92;2.58;;;12.50;92.20;;;;;;5015918;28;20034;-84
2021/05/27 06:08:08;;;;;;;4.13;3.33;;;12.40;91.90;;;;;;5016623;28;20113;-83
2021/05/27 06:10:34;;;;;;;4.65;3.22;;;12.50;91.90;;;;;;5015543;28;20049;-84
2021/05/27 06:13:00;;;;;;;8.23;2.92;;;12.50;91.80;;;;;;5012396;28;20041;-84
2021/05/27 06:15:27;;;;;;;5.45;3.13;;;12.60;91.90;;;;;;5014806;28;20033;-83
2021/05/27 06:17:52;;;;;;;2.80;2.22;;;12.70;91.80;;;;;;5014261;28;20132;-85
2021/05/27 06:20:22;;;;;;;4.05;3.03;;;12.70;91.90;;;;;;4998890;28;20188;-83
2021/05/27 06:22:49;;;;;;;4.45;2.67;;;12.70;91.90;;;;;;5012125;28;20053;-83
2021/05/27 06:25:16;;;;;;;3.45;2.88;;;12.70;91.50;;;;;;5009082;28;20073;-85
2021/05/27 06:27:42;;;;;;;3.65;2.83;;;12.70;91.60;;;;;;5000624;28;20117;-84
2021/05/27 06:30:09;;;;;;;3.78;3.05;;;12.70;91.90;;;;;;5003686;28;20278;-84
2021/05/27 06:32:36;;;;;;;5.65;3.33;;;12.70;91.80;;;;;;5010637;28;20038;-85
2021/05/27 06:35:07;;;;;;;5.25;3.38;;;12.70;92.30;;;;;;5014285;28;20056;-84
2021/05/27 06:37:37;;;;;;;3.25;2.75;;;12.70;91.90;;;;;;4996298;28;20092;-84
2021/05/27 06:40:08;;;;;;;4.40;3.10;;;12.70;92.00;;;;;;5010650;28;20153;-84
2021/05/27 06:42:34;;;;;;;3.60;2.47;;;12.80;91.60;;;;;;5013268;28;20045;-85
2021/05/27 06:45:00;;;;;;;4.68;3.15;;;12.80;91.20;;;;;;5013031;28;20033;-84
2021/05/27 06:47:26;;;;;;;3.28;2.72;;;12.80;91.50;;;;;;5019201;28;20045;-84
2021/05/27 06:49:52;;;;;;;3.05;2.75;;;12.80;91.00;;;;;;5002764;28;20310;-84
2021/05/27 06:52:17;;;;;;;3.92;2.33;;;12.70;91.40;;;;;;5013304;28;20044;-85
2021/05/27 06:54:43;;;;;;;3.17;2.50;;;12.80;91.40;;;;;;5000644;28;20500;-84
2021/05/27 06:57:09;;;;;;;2.70;2.40;;;12.80;90.90;;;;;;5009674;28;20041;-84
2021/05/27 06:59:34;;;;;;;2.90;2.30;;;12.70;91.00;;;;;;5009145;28;20129;-84
2021/05/27 07:02:00;;;;;;;3.17;2.60;;;12.80;91.00;;;;;;4998873;28;20038;-85
2021/05/27 07:04:26;;;;;;;3.05;2.42;;;12.90;90.80;;;;;;5011415;28;20303;-84
2021/05/27 07:06:52;;;;;;;3.05;2.55;;;12.90;90.90;;;;;;4999270;28;20030;-84
2021/05/27 07:09:19;;;;;;;4.47;2.60;;;13.00;90.80;;;;;;5001607;28;20053;-84
2021/05/27 07:11:44;;;;;;;3.70;2.75;;;13.00;90.90;;;;;;4995065;28;20049;-84
2021/05/27 07:14:10;;;;;;;3.78;2.28;;;13.00;90.60;;;;;;4994811;28;20046;-83
2021/05/27 07:16:36;;;;;;;3.03;2.08;;;13.00;90.30;;;;;;4993386;28;20131;-84
2021/05/27 07:19:02;;;;;;;4.15;2.30;;;13.00;90.50;;;;;;5009236;28;20046;-83
2021/05/27 07:21:27;;;;;;;2.58;2.17;;;13.00;90.50;;;;;;4994569;28;20057;-84
2021/05/27 07:23:53;;;;;;;2.35;2.05;;;13.10;90.30;;;;;;5013027;28;20060;-84
2021/05/27 07:26:18;;;;;;;3.13;2.05;;;13.10;90.20;;;;;;5013264;28;20129;-84
2021/05/27 07:28:44;;;;;;;4.53;1.98;;;13.10;90.60;;;;;;5008755;28;20038;-85
2021/05/27 07:31:10;;;;;;;2.63;2.00;;;13.10;90.60;;;;;;5009244;28;20132;-84
2021/05/27 07:33:35;;;;;;;2.38;1.83;;;13.10;90.40;;;;;;5010606;28;20050;-83
2021/05/27 07:36:03;;;;;;;3.63;2.40;;;13.10;90.40;;;;;;5009027;28;20088;-83
2021/05/27 07:38:28;;;;;;;2.28;1.80;;;13.20;90.50;;;;;;4993941;28;20042;-83
2021/05/27 07:40:54;;;;;;;4.65;2.00;;;13.20;90.00;;;;;;5003417;28;20034;-83
2021/05/27 07:43:19;;;;;;;2.92;2.17;;;13.30;90.20;;;;;;5010705;28;20660;-83
2021/05/27 07:45:45;;;;;;;3.28;2.10;;;13.30;90.50;;;;;;5003330;28;20041;-86
2021/05/27 07:48:11;;;;;;;5.95;2.40;;;13.30;90.00;;;;;;5026069;28;20038;-84
2021/05/27 07:50:36;;;;;;;2.88;1.63;;;13.30;90.10;;;;;;5007571;28;20042;-84
2021/05/27 07:53:02;;;;;;;3.20;1.90;;;13.20;89.80;;;;;;5003880;28;20309;-82
2021/05/27 07:55:27;;;;;;;4.47;2.15;;;13.10;90.10;;;;;;5012787;28;20192;-83
2021/05/27 07:57:54;;;;;;;5.20;2.08;;;13.10;90.20;;;;;;4996734;28;20425;-83
2021/05/27 08:00:20;;;;;;;3.10;1.95;;;13.20;90.40;;;;;;4993314;28;20050;-83
2021/05/27 08:02:49;;;;;;;3.42;1.90;;;13.20;90.60;;;;;;4993594;28;20410;-82
2021/05/27 08:05:14;;;;;;;3.45;2.58;;;13.20;90.60;;;;;;4994048;28;20038;-83
2021/05/27 08:07:40;;;;;;;1.45;0.95;;;13.30;91.10;;;;;;4993406;28;20045;-84
2021/05/27 08:10:07;;;;;;;0.95;0.50;;;13.10;89.80;;;;;;5009527;28;20038;-83
2021/05/27 08:12:33;;;;;;;0.35;0.35;;;12.90;90.20;;;;;;5013253;28;20439;-84
2021/05/27 08:14:59;;;;;;;0.55;0.55;;;12.60;90.80;;;;;;5013251;28;20045;-84
2021/05/27 08:17:25;;;;;;;0.40;0.40;;;12.40;91.40;;;;;;5013791;28;20302;-83
2021/05/27 08:19:50;;;;;;;0.70;0.50;;;12.10;91.90;;;;;;5012762;28;20073;-84
2021/05/27 08:22:16;;;;;;;0.75;0.60;;;11.90;92.10;;;;;;5018314;28;20148;-83
2021/05/27 08:24:43;;;;;;;0.75;0.28;;;11.70;92.90;;;;;;5013359;28;20535;-83
2021/05/27 08:27:08;;;;;;;0.75;0.60;;;11.70;93.30;;;;;;5012713;28;20121;-84
2021/05/27 08:29:34;;;;;;;3.97;1.30;;;11.60;93.40;;;;;;5006039;28;20357;-83
2021/05/27 08:31:59;;;;;;;1.33;0.75;;;11.50;93.10;;;;;;4992913;28;20490;-83
2021/05/27 08:34:25;;;;;;;4.38;0.80;;;11.50;93.50;;;;;;5007781;28;20056;-84
2021/05/27 08:36:50;;;;;;;5.05;0.65;;;11.50;93.70;;;;;;4999860;28;20118;-83
2021/05/27 08:39:16;;;;;;;1.13;0.60;;;11.50;93.70;;;;;;4993944;28;20042;-83
2021/05/27 08:41:42;;;;;;;1.75;0.50;;;11.50;93.80;;;;;;5022543;28;20067;-84
2021/05/27 08:44:10;;;;;;;1.55;0.57;;;11.50;93.90;;;;;;5013284;28;20038;-84
2021/05/27 08:46:36;;;;;;;0.70;0.40;;;11.50;94.10;;;;;;5011870;28;20042;-84
2021/05/27 08:49:02;;;;;;;3.40;0.50;;;11.40;94.40;;;;;;5009230;28;20065;-84
2021/05/27 08:51:33;;;;;;;2.90;0.50;;;11.40;94.30;;;;;;4992996;28;20366;-84
2021/05/27 08:53:59;;;;;;;1.77;0.60;;;11.40;94.60;;;;;;4994139;28;20042;-84
2021/05/27 08:56:24;;;;;;;5.95;0.70;;;11.40;95.30;;;;;;4995870;28;20038;-84
2021/05/27 08:58:52;;;;;;;4.38;0.60;;;11.30;95.10;;;;;;5019857;28;20472;-85
2021/05/27 09:01:22;;;;;;;0.98;0.60;;;11.30;95.60;;;;;;5009921;28;20066;-84
2021/05/27 09:03:48;;;;;;;1.88;0.60;;;11.40;95.50;;;;;;5005817;28;20080;-84
2021/05/27 09:06:14;;;;;;;0.82;0.50;;;11.40;95.50;;;;;;5012249;28;20375;-84
2021/05/27 09:08:40;;;;;;;0.82;0.60;;;11.50;95.40;;;;;;5024902;28;20042;-84
2021/05/27 09:11:11;;;;;;;1.52;0.65;;;11.50;95.30;;;;;;5001615;28;20052;-84
2021/05/27 09:13:49;;;;;;;0.88;0.63;;;11.60;95.50;;;;;;5006074;28;20750;-84
2021/05/27 09:16:14;;;;;;;2.15;0.77;;;11.60;95.60;;;;;;4997491;28;20026;-84
2021/05/27 09:18:42;;;;;;;1.15;0.50;;;11.70;94.80;;;;;;5000327;28;20322;-84
2021/05/27 09:21:10;;;;;;;0.60;0.50;;;11.70;95.10;;;;;;5021435;28;20350;-85
2021/05/27 09:23:44;;;;;;;0.63;0.60;;;11.70;95.20;;;;;;4995927;28;20046;-85
2021/05/27 09:26:13;;;;;;;3.70;0.70;;;11.70;95.20;;;;;;5010543;28;20068;-84
2021/05/27 09:28:39;;;;;;;0.70;0.50;;;11.70;95.60;;;;;;5015548;28;20033;-85
2021/05/27 09:31:10;;;;;;;0.88;0.75;;;11.70;95.20;;;;;;5017045;28;20439;-85
2021/05/27 09:33:37;;;;;;;1.95;0.68;;;11.80;95.00;;;;;;5019319;28;20034;-85
2021/05/27 09:36:13;;;;;;;4.00;0.77;;;11.80;95.50;;;;;;5015361;28;20046;-85
2021/05/27 09:38:44;;;;;;;4.03;0.95;;;11.80;95.50;;;;;;5015895;28;20038;-82
2021/05/27 09:41:22;;;;;;;1.65;0.70;;;11.90;95.60;;;;;;5010878;28;20589;-83
2021/05/27 09:43:56;;;;;;;4.40;1.90;;;11.90;95.40;;;;;;5000470;28;20360;-84
2021/05/27 09:46:23;;;;;;;1.35;1.00;;;11.90;96.00;;;;;;5015924;28;20095;-84
2021/05/27 09:49:05;;;;;;;3.33;1.17;;;12.00;95.80;;;;;;5016525;28;20045;-84
2021/05/27 09:51:30;;;;;;;9.68;2.80;;;11.90;95.20;;;;;;5030260;28;20122;-84
2021/05/27 09:53:56;;;;;;;3.20;1.58;;;12.00;95.60;;;;;;5029189;28;20046;-84
2021/05/27 09:56:55;;;;;;;5.05;1.58;;;12.10;95.60;;;;;;5019099;28;20049;-83
2021/05/27 09:59:20;;;;;;;2.17;1.38;;;12.10;95.00;;;;;;4992279;28;20049;-84
2021/05/27 10:02:12;;;;;;;1.83;1.15;;;12.10;95.50;;;;;;5015162;28;20049;-83
2021/05/27 10:04:56;;;;;;;2.17;1.10;;;12.20;95.40;;;;;;5014841;28;20038;-83
2021/05/27 10:07:35;;;;;;;3.03;1.63;;;12.20;95.60;;;;;;5015425;28;20040;-85
2021/05/27 10:10:01;;;;;;;1.17;1.08;;;12.40;96.60;;;;;;5016026;28;20049;-83
2021/05/27 10:12:29;;;;;;;1.25;0.70;;;12.70;96.40;;;;;;5031130;28;20046;-84
2021/05/27 10:14:56;;;;;;;1.02;0.90;;;12.80;95.20;;;;;;5014885;28;20049;-83
2021/05/27 10:17:22;;;;;;;1.13;1.02;;;12.80;94.70;;;;;;5007319;28;20112;-84
2021/05/27 10:19:49;;;;;;;1.10;0.98;;;12.80;94.10;;;;;;5012160;28;20038;-86
2021/05/27 10:22:15;;;;;;;1.50;0.80;;;12.90;95.10;;;;;;4995623;28;20038;-85
2021/05/27 10:24:41;;;;;;;0.50;0.50;;;13.00;95.70;;;;;;4995565;28;20072;-84
2021/05/27 10:27:07;;;;;;;1.52;0.75;;;13.10;94.80;;;;;;4995609;28;20057;-85
2021/05/27 10:29:33;;;;;;;4.75;0.60;;;13.20;94.40;;;;;;4997811;28;20038;-85
2021/05/27 10:31:59;;;;;;;2.28;0.85;;;13.30;94.00;;;;;;5016408;28;20121;-85
2021/05/27 10:34:42;;;;;;;1.20;1.00;;;13.40;93.40;;;;;;5009594;28;20041;-83
2021/05/27 10:37:08;;;;;;;;;;;13.40;93.30;;;;;;5012307;28;20042;-84
2021/05/27 10:39:34;;;;;;;0.60;0.50;;;13.40;93.30;;;;;;5014834;28;19924;-85
2021/05/27 10:41:59;;;;;;;0.63;0.60;;;13.30;94.10;;;;;;5008989;28;20461;-84
2021/05/27 10:44:25;;;;;;;1.85;0.55;;;13.30;93.70;;;;;;5010854;28;20037;-85
2021/05/27 10:46:53;;;;;;;0.63;0.50;;;13.20;93.50;;;;;;5008168;28;20521;-84
2021/05/27 10:49:38;;;;;;;3.53;0.52;;;13.10;93.80;;;;;;5003224;28;20524;-85
2021/05/27 10:52:30;;;;;;;1.10;0.50;;;13.00;94.00;;;;;;5011065;28;20053;-84
2021/05/27 10:54:55;;;;;;;2.17;1.10;;;13.00;94.10;;;;;;5006383;28;20484;-85
2021/05/27 10:57:39;;;;;;;0.73;0.65;;;12.90;94.70;;;;;;5021364;28;20040;-83
2021/05/27 11:00:17;;;;;;;1.40;0.60;;;12.90;94.80;;;;;;5004044;28;20038;-83
2021/05/27 11:02:43;;;;;;;1.27;0.70;;;12.90;95.00;;;;;;5000353;28;20182;-84
2021/05/27 11:05:16;;;;;;;2.33;0.57;;;13.00;94.70;;;;;;4999072;28;20390;-82
2021/05/27 11:07:41;;;;;;;0.85;0.60;;;13.00;94.70;;;;;;5015819;28;20046;-84
2021/05/27 11:10:28;;;;;;;1.88;0.80;;;13.10;95.20;;;;;;5008970;28;20133;-84
2021/05/27 11:13:01;;;;;;;0.55;0.40;;;13.00;94.40;;;;;;5001992;28;20060;-84
2021/05/27 11:15:27;;;;;;;1.77;0.80;;;13.00;94.30;;;;;;5007326;28;20042;-84
2021/05/27 11:18:07;;;;;;;0.80;0.47;;;13.00;94.90;;;;;;5007633;28;20187;-85
2021/05/27 11:20:34;;;;;;;0.60;0.50;;;13.00;94.80;;;;;;5005509;28;20127;-85
2021/05/27 11:23:21;;;;;;;1.00;0.70;;;13.00;94.90;;;;;;5017670;28;20314;-84
2021/05/27 11:25:47;;;;;;;1.95;1.00;;;13.00;95.10;;;;;;5002964;28;20042;-85
2021/05/27 11:28:13;;;;;;;14.43;1.73;;;13.10;94.80;;;;;;4999633;28;20516;-84
2021/05/27 11:30:39;;;;;;;6.00;1.40;;;13.10;95.00;;;;;;5000713;28;20034;-85
2021/05/27 11:33:14;;;;;;;2.38;0.90;;;13.10;94.90;;;;;;5002461;28;20046;-84
2021/05/27 11:35:40;;;;;;;1.10;0.68;;;13.00;94.70;;;;;;5004325;28;20042;-84
2021/05/27 11:38:23;;;;;;;17.30;2.92;;;13.00;95.50;;;;;;5004521;28;20045;-83
2021/05/27 11:40:52;;;;;;;2.20;0.88;;;13.10;95.20;;;;;;5025043;28;20033;-84
2021/05/27 11:43:29;;;;;;;2.22;0.90;;;13.10;94.70;;;;;;4995345;28;20055;-86
2021/05/27 11:45:56;;;;;;;0.82;0.77;;;13.00;95.20;;;;;;5002916;28;20046;-84
2021/05/27 11:48:32;;;;;;;0.68;0.52;;;13.10;95.70;;;;;;5008716;28;20038;-85
2021/05/27 11:51:02;;;;;;;1.20;0.80;;;13.10;95.30;;;;;;4999918;28;20044;-84
2021/05/27 11:53:50;;;;;;;1.33;1.02;;;13.20;95.30;;;;;;5023772;28;20040;-84
2021/05/27 11:56:32;;;;;;;2.33;0.77;;;13.20;95.10;;;;;;5008793;28;20038;-85
2021/05/27 11:58:57;;;;;;;1.58;0.93;;;13.30;95.20;;;;;;5014670;28;20115;-85
2021/05/27 12:01:25;;;;;;;1.90;0.98;;;13.30;94.70;;;;;;5000290;28;20050;-86
2021/05/27 12:04:01;;;;;;;3.08;0.93;;;13.40;95.40;;;;;;5002565;28;20042;-84
2021/05/27 12:06:26;;;;;;;1.00;0.90;;;13.50;95.00;;;;;;5004243;28;20069;-83
2021/05/27 12:08:52;;;;;;;2.88;0.98;;;13.70;94.70;;;;;;5004510;28;20072;-84
2021/05/27 12:11:29;;;;;;;1.52;0.68;;;13.80;95.00;;;;;;4995654;28;20077;-83
2021/05/27 12:14:02;;;;;;;1.08;0.73;;;14.00;93.50;;;;;;5005592;28;20061;-83
2021/05/27 12:16:35;;;;;;;1.23;0.90;;;13.90;93.20;;;;;;5022063;28;20068;-84
2021/05/27 12:19:12;;;;;;;0.85;0.77;;;13.90;93.50;;;;;;4998027;28;20039;-85
2021/05/27 12:21:48;;;;;;;34.33;5.25;;;14.00;93.80;;;;;;5001824;28;20427;-84
2021/05/27 12:24:25;;;;;;;2.63;0.98;;;14.10;93.20;;;;;;4998629;28;20042;-84
2021/05/27 12:26:50;;;;;;;0.77;0.60;;;14.20;94.40;;;;;;5003746;28;20044;-84
2021/05/27 12:29:16;;;;;;;0.75;0.70;;;14.30;93.40;;;;;;5019539;28;20038;-84
2021/05/27 12:31:42;;;;;;;1.05;0.77;;;14.30;92.40;;;;;;5037301;28;20079;-84
2021/05/27 12:34:08;;;;;;;0.57;0.52;;;14.30;92.70;;;;;;5001498;28;20084;-84
2021/05/27 12:36:50;;;;;;;0.85;0.65;;;14.40;92.70;;;;;;5002457;28;20069;-84
2021/05/27 12:39:29;;;;;;;1.85;0.75;;;14.60;92.70;;;;;;5012591;28;20112;-85
2021/05/27 12:41:55;;;;;;;0.70;0.68;;;14.60;91.90;;;;;;5015332;28;20052;-86
2021/05/27 12:44:31;;;;;;;1.60;0.82;;;14.50;91.90;;;;;;5000636;28;20030;-85
2021/05/27 12:46:57;;;;;;;2.50;0.60;;;14.60;92.10;;;;;;5023617;28;20049;-84
2021/05/27 12:49:32;;;;;;;3.88;0.52;;;14.60;92.30;;;;;;5004149;28;20042;-84
2021/05/27 12:51:59;;;;;;;0.70;0.55;;;14.60;92.00;;;;;;4997215;28;20034;-85
2021/05/27 12:54:25;;;;;;;0.57;0.52;;;14.60;92.60;;;;;;5010365;28;20578;-85
2021/05/27 12:57:10;;;;;;;1.13;0.50;;;14.50;91.50;;;;;;5011911;28;20056;-84